Guajeru, Brazil
Current Conditions -  °F | °C
As of 9:00 AM on Tuesday 27 Jan 2015 (Local Time) from SBQV Reporting Station
Broken Clouds Broken Clouds  
Wind Chill: 73°   Ceiling: 1500
Heat Index: 73°   Visibility: 6mi
Dew Point: 66°   Wind: 5mph
Humidity: 78%   Direction: 350°N
Pressure: 30.15"   Gusts: NA
Location:  14.55°S, 41.94°W
Report Text: SBQV 271200Z 35004KT 9999 BKN015 23/19 Q1021
Loading
Personal Weather Stations






























Interactive Weather Map New forecast layout! Learn more

10-Day Weather Forecast

Advertisements
Track Severe Weather on mobile